sensor_id;sensor_type;location;lat;lon;timestamp;P1;durP1;ratioP1;P2;durP2;ratioP2
11267;SDS011;72685;47.474;9.416;2024-02-28T00:01:15;26.92;;;20.20;;
11267;SDS011;72685;47.474;9.416;2024-02-28T00:03:42;28.80;;;20.77;;
11267;SDS011;72685;47.474;9.416;2024-02-28T00:06:07;25.13;;;20.10;;
11267;SDS011;72685;47.474;9.416;2024-02-28T00:08:32;26.27;;;20.07;;
11267;SDS011;72685;47.474;9.416;2024-02-28T00:10:58;26.33;;;20.33;;
11267;SDS011;72685;47.474;9.416;2024-02-28T00:13:23;25.38;;;20.20;;
11267;SDS011;72685;47.474;9.416;2024-02-28T00:15:49;27.17;;;20.48;;
11267;SDS011;72685;47.474;9.416;2024-02-28T00:18:15;24.83;;;19.57;;
11267;SDS011;72685;47.474;9.416;2024-02-28T00:20:41;28.70;;;21.65;;
11267;SDS011;72685;47.474;9.416;2024-02-28T00:23:08;29.00;;;21.45;;
11267;SDS011;72685;47.474;9.416;2024-02-28T00:25:34;26.63;;;20.80;;
11267;SDS011;72685;47.474;9.416;2024-02-28T00:28:00;27.70;;;20.35;;
11267;SDS011;72685;47.474;9.416;2024-02-28T00:30:25;25.53;;;19.60;;
11267;SDS011;72685;47.474;9.416;2024-02-28T00:32:53;27.15;;;20.75;;
11267;SDS011;72685;47.474;9.416;2024-02-28T00:35:19;28.57;;;21.13;;
11267;SDS011;72685;47.474;9.416;2024-02-28T00:37:44;27.83;;;21.10;;
11267;SDS011;72685;47.474;9.416;2024-02-28T00:40:10;29.73;;;21.70;;
11267;SDS011;72685;47.474;9.416;2024-02-28T00:42:35;27.30;;;21.65;;
11267;SDS011;72685;47.474;9.416;2024-02-28T00:45:01;29.63;;;22.30;;
11267;SDS011;72685;47.474;9.416;2024-02-28T00:47:26;28.73;;;21.93;;
11267;SDS011;72685;47.474;9.416;2024-02-28T00:49:51;29.60;;;22.47;;
11267;SDS011;72685;47.474;9.416;2024-02-28T00:52:17;28.10;;;21.10;;
11267;SDS011;72685;47.474;9.416;2024-02-28T00:54:42;26.88;;;20.30;;
11267;SDS011;72685;47.474;9.416;2024-02-28T00:57:08;28.60;;;20.70;;
11267;SDS011;72685;47.474;9.416;2024-02-28T00:59:33;26.97;;;21.40;;
11267;SDS011;72685;47.474;9.416;2024-02-28T01:01:58;31.30;;;21.53;;
11267;SDS011;72685;47.474;9.416;2024-02-28T01:04:24;27.40;;;20.80;;
11267;SDS011;72685;47.474;9.416;2024-02-28T01:06:49;23.47;;;19.60;;
11267;SDS011;72685;47.474;9.416;2024-02-28T01:09:14;28.40;;;21.30;;
11267;SDS011;72685;47.474;9.416;2024-02-28T01:11:40;27.50;;;20.52;;
11267;SDS011;72685;47.474;9.416;2024-02-28T01:14:05;27.40;;;21.13;;
11267;SDS011;72685;47.474;9.416;2024-02-28T01:16:30;28.80;;;21.93;;
11267;SDS011;72685;47.474;9.416;2024-02-28T01:18:56;29.50;;;21.02;;
11267;SDS011;72685;47.474;9.416;2024-02-28T01:21:21;27.37;;;20.47;;
11267;SDS011;72685;47.474;9.416;2024-02-28T01:23:47;29.30;;;21.57;;
11267;SDS011;72685;47.474;9.416;2024-02-28T01:26:12;28.53;;;21.67;;
11267;SDS011;72685;47.474;9.416;2024-02-28T01:28:37;27.67;;;21.30;;
11267;SDS011;72685;47.474;9.416;2024-02-28T01:31:03;27.87;;;21.27;;
11267;SDS011;72685;47.474;9.416;2024-02-28T01:33:28;29.63;;;22.07;;
11267;SDS011;72685;47.474;9.416;2024-02-28T01:35:53;30.03;;;21.13;;
11267;SDS011;72685;47.474;9.416;2024-02-28T01:38:20;31.45;;;21.90;;
11267;SDS011;72685;47.474;9.416;2024-02-28T01:40:45;32.70;;;22.03;;
11267;SDS011;72685;47.474;9.416;2024-02-28T01:43:11;27.60;;;21.20;;
11267;SDS011;72685;47.474;9.416;2024-02-28T01:45:37;28.52;;;22.45;;
11267;SDS011;72685;47.474;9.416;2024-02-28T01:48:03;27.53;;;20.63;;
11267;SDS011;72685;47.474;9.416;2024-02-28T01:50:30;29.70;;;21.38;;
11267;SDS011;72685;47.474;9.416;2024-02-28T01:52:57;30.15;;;21.30;;
11267;SDS011;72685;47.474;9.416;2024-02-28T01:55:23;27.65;;;21.55;;
11267;SDS011;72685;47.474;9.416;2024-02-28T01:57:48;32.45;;;22.30;;
11267;SDS011;72685;47.474;9.416;2024-02-28T02:00:14;29.40;;;22.00;;
11267;SDS011;72685;47.474;9.416;2024-02-28T02:02:41;29.27;;;20.90;;
11267;SDS011;72685;47.474;9.416;2024-02-28T02:05:07;30.27;;;21.13;;
11267;SDS011;72685;47.474;9.416;2024-02-28T02:07:34;30.17;;;21.53;;
11267;SDS011;72685;47.474;9.416;2024-02-28T02:10:00;30.35;;;22.67;;
11267;SDS011;72685;47.474;9.416;2024-02-28T02:12:26;33.00;;;23.87;;
11267;SDS011;72685;47.474;9.416;2024-02-28T02:14:51;30.97;;;23.27;;
11267;SDS011;72685;47.474;9.416;2024-02-28T02:17:16;30.63;;;22.33;;
11267;SDS011;72685;47.474;9.416;2024-02-28T02:19:42;31.95;;;22.75;;
11267;SDS011;72685;47.474;9.416;2024-02-28T02:22:08;35.70;;;24.53;;
11267;SDS011;72685;47.474;9.416;2024-02-28T02:24:35;35.20;;;24.13;;
11267;SDS011;72685;47.474;9.416;2024-02-28T02:27:00;33.63;;;23.15;;
11267;SDS011;72685;47.474;9.416;2024-02-28T02:29:27;32.40;;;23.73;;
11267;SDS011;72685;47.474;9.416;2024-02-28T02:31:53;31.17;;;21.73;;
11267;SDS011;72685;47.474;9.416;2024-02-28T02:34:19;33.43;;;23.33;;
11267;SDS011;72685;47.474;9.416;2024-02-28T02:36:44;30.03;;;21.80;;
11267;SDS011;72685;47.474;9.416;2024-02-28T02:39:09;33.13;;;22.95;;
11267;SDS011;72685;47.474;9.416;2024-02-28T02:41:35;33.70;;;24.10;;
11267;SDS011;72685;47.474;9.416;2024-02-28T02:44:00;32.73;;;22.80;;
11267;SDS011;72685;47.474;9.416;2024-02-28T02:46:25;33.67;;;23.80;;
11267;SDS011;72685;47.474;9.416;2024-02-28T02:48:51;32.20;;;22.40;;
11267;SDS011;72685;47.474;9.416;2024-02-28T02:51:18;34.03;;;23.03;;
11267;SDS011;72685;47.474;9.416;2024-02-28T02:53:44;32.83;;;22.80;;
11267;SDS011;72685;47.474;9.416;2024-02-28T02:56:10;35.13;;;24.13;;
11267;SDS011;72685;47.474;9.416;2024-02-28T02:58:35;34.33;;;24.23;;
11267;SDS011;72685;47.474;9.416;2024-02-28T03:01:00;36.50;;;24.60;;
11267;SDS011;72685;47.474;9.416;2024-02-28T03:03:26;35.72;;;24.25;;
11267;SDS011;72685;47.474;9.416;2024-02-28T03:05:51;37.67;;;25.03;;
11267;SDS011;72685;47.474;9.416;2024-02-28T03:08:17;36.73;;;24.20;;
11267;SDS011;72685;47.474;9.416;2024-02-28T03:10:42;37.40;;;24.55;;
11267;SDS011;72685;47.474;9.416;2024-02-28T03:13:07;33.17;;;23.63;;
11267;SDS011;72685;47.474;9.416;2024-02-28T03:15:33;39.80;;;24.90;;
11267;SDS011;72685;47.474;9.416;2024-02-28T03:17:59;37.87;;;26.37;;
11267;SDS011;72685;47.474;9.416;2024-02-28T03:20:24;39.13;;;25.57;;
11267;SDS011;72685;47.474;9.416;2024-02-28T03:22:51;35.50;;;23.63;;
11267;SDS011;72685;47.474;9.416;2024-02-28T03:25:16;36.17;;;24.85;;
11267;SDS011;72685;47.474;9.416;2024-02-28T03:27:41;39.83;;;24.90;;
11267;SDS011;72685;47.474;9.416;2024-02-28T03:30:07;39.25;;;25.83;;
11267;SDS011;72685;47.474;9.416;2024-02-28T03:32:33;36.17;;;24.05;;
11267;SDS011;72685;47.474;9.416;2024-02-28T03:34:58;35.60;;;23.63;;
11267;SDS011;72685;47.474;9.416;2024-02-28T03:37:24;34.87;;;24.23;;
11267;SDS011;72685;47.474;9.416;2024-02-28T03:39:49;37.85;;;24.92;;
11267;SDS011;72685;47.474;9.416;2024-02-28T03:42:14;34.83;;;25.07;;
11267;SDS011;72685;47.474;9.416;2024-02-28T03:44:40;36.60;;;25.90;;
11267;SDS011;72685;47.474;9.416;2024-02-28T03:47:05;34.97;;;24.47;;
11267;SDS011;72685;47.474;9.416;2024-02-28T03:49:31;35.75;;;24.73;;
11267;SDS011;72685;47.474;9.416;2024-02-28T03:51:56;38.83;;;25.67;;
11267;SDS011;72685;47.474;9.416;2024-02-28T03:54:21;38.50;;;25.17;;
11267;SDS011;72685;47.474;9.416;2024-02-28T03:56:47;34.23;;;23.60;;
11267;SDS011;72685;47.474;9.416;2024-02-28T03:59:12;37.00;;;24.40;;
11267;SDS011;72685;47.474;9.416;2024-02-28T04:01:38;36.00;;;24.10;;
11267;SDS011;72685;47.474;9.416;2024-02-28T04:04:03;36.97;;;25.00;;
11267;SDS011;72685;47.474;9.416;2024-02-28T04:06:29;35.70;;;24.70;;
11267;SDS011;72685;47.474;9.416;2024-02-28T04:08:55;37.17;;;25.30;;
11267;SDS011;72685;47.474;9.416;2024-02-28T04:11:20;38.30;;;25.30;;
11267;SDS011;72685;47.474;9.416;2024-02-28T04:13:45;36.33;;;23.57;;
11267;SDS011;72685;47.474;9.416;2024-02-28T04:16:11;36.70;;;25.10;;
11267;SDS011;72685;47.474;9.416;2024-02-28T04:18:37;36.15;;;24.85;;
11267;SDS011;72685;47.474;9.416;2024-02-28T04:21:02;42.40;;;26.20;;
11267;SDS011;72685;47.474;9.416;2024-02-28T04:23:28;39.15;;;24.55;;
11267;SDS011;72685;47.474;9.416;2024-02-28T04:25:53;38.73;;;26.37;;
11267;SDS011;72685;47.474;9.416;2024-02-28T04:28:18;36.63;;;24.30;;
11267;SDS011;72685;47.474;9.416;2024-02-28T04:30:44;39.83;;;25.87;;
11267;SDS011;72685;47.474;9.416;2024-02-28T04:33:09;37.50;;;25.87;;
11267;SDS011;72685;47.474;9.416;2024-02-28T04:35:35;38.70;;;25.33;;
11267;SDS011;72685;47.474;9.416;2024-02-28T04:38:00;37.80;;;25.73;;
11267;SDS011;72685;47.474;9.416;2024-02-28T04:40:25;40.47;;;25.95;;
11267;SDS011;72685;47.474;9.416;2024-02-28T04:42:51;38.90;;;25.37;;
11267;SDS011;72685;47.474;9.416;2024-02-28T04:45:16;42.30;;;27.57;;
11267;SDS011;72685;47.474;9.416;2024-02-28T04:47:42;40.70;;;26.30;;
11267;SDS011;72685;47.474;9.416;2024-02-28T04:50:07;38.35;;;25.50;;
11267;SDS011;72685;47.474;9.416;2024-02-28T04:52:34;39.00;;;25.20;;
11267;SDS011;72685;47.474;9.416;2024-02-28T04:54:59;38.80;;;25.90;;
11267;SDS011;72685;47.474;9.416;2024-02-28T04:57:25;41.03;;;26.77;;
11267;SDS011;72685;47.474;9.416;2024-02-28T04:59:50;37.83;;;25.83;;
11267;SDS011;72685;47.474;9.416;2024-02-28T05:02:16;41.77;;;27.37;;
11267;SDS011;72685;47.474;9.416;2024-02-28T05:04:42;39.77;;;25.63;;
11267;SDS011;72685;47.474;9.416;2024-02-28T05:07:07;37.58;;;25.05;;
11267;SDS011;72685;47.474;9.416;2024-02-28T05:09:33;39.13;;;25.97;;
11267;SDS011;72685;47.474;9.416;2024-02-28T05:11:59;38.80;;;25.50;;
11267;SDS011;72685;47.474;9.416;2024-02-28T05:14:24;39.60;;;26.43;;
11267;SDS011;72685;47.474;9.416;2024-02-28T05:16:50;40.97;;;26.77;;
11267;SDS011;72685;47.474;9.416;2024-02-28T05:19:15;44.78;;;26.52;;
11267;SDS011;72685;47.474;9.416;2024-02-28T05:21:43;42.85;;;26.27;;
11267;SDS011;72685;47.474;9.416;2024-02-28T05:24:09;44.37;;;28.83;;
11267;SDS011;72685;47.474;9.416;2024-02-28T05:26:35;40.43;;;26.30;;
11267;SDS011;72685;47.474;9.416;2024-02-28T05:29:01;43.60;;;27.17;;
11267;SDS011;72685;47.474;9.416;2024-02-28T05:31:28;39.90;;;25.80;;
11267;SDS011;72685;47.474;9.416;2024-02-28T05:33:54;42.33;;;26.67;;
11267;SDS011;72685;47.474;9.416;2024-02-28T05:36:24;42.13;;;27.20;;
11267;SDS011;72685;47.474;9.416;2024-02-28T05:38:50;38.88;;;26.02;;
11267;SDS011;72685;47.474;9.416;2024-02-28T05:41:16;43.75;;;26.50;;
11267;SDS011;72685;47.474;9.416;2024-02-28T05:43:45;42.88;;;27.27;;
11267;SDS011;72685;47.474;9.416;2024-02-28T05:46:12;43.10;;;26.10;;
11267;SDS011;72685;47.474;9.416;2024-02-28T05:48:37;39.13;;;26.50;;
11267;SDS011;72685;47.474;9.416;2024-02-28T05:51:03;42.27;;;26.90;;
11267;SDS011;72685;47.474;9.416;2024-02-28T05:53:29;41.20;;;27.63;;
11267;SDS011;72685;47.474;9.416;2024-02-28T05:56:01;41.67;;;27.20;;
11267;SDS011;72685;47.474;9.416;2024-02-28T05:58:27;41.10;;;26.08;;
11267;SDS011;72685;47.474;9.416;2024-02-28T06:00:52;45.35;;;27.67;;
11267;SDS011;72685;47.474;9.416;2024-02-28T06:03:17;44.17;;;27.67;;
11267;SDS011;72685;47.474;9.416;2024-02-28T06:05:43;43.10;;;27.03;;
11267;SDS011;72685;47.474;9.416;2024-02-28T06:08:08;46.90;;;28.17;;
11267;SDS011;72685;47.474;9.416;2024-02-28T06:10:34;45.95;;;27.70;;
11267;SDS011;72685;47.474;9.416;2024-02-28T06:12:59;42.00;;;26.90;;
11267;SDS011;72685;47.474;9.416;2024-02-28T06:15:25;43.25;;;29.13;;
11267;SDS011;72685;47.474;9.416;2024-02-28T06:17:51;43.55;;;28.25;;
11267;SDS011;72685;47.474;9.416;2024-02-28T06:20:16;47.07;;;29.30;;
11267;SDS011;72685;47.474;9.416;2024-02-28T06:22:42;42.13;;;27.50;;
11267;SDS011;72685;47.474;9.416;2024-02-28T06:25:07;41.50;;;26.50;;
11267;SDS011;72685;47.474;9.416;2024-02-28T06:27:39;43.35;;;27.98;;
11267;SDS011;72685;47.474;9.416;2024-02-28T06:30:05;42.97;;;27.63;;
11267;SDS011;72685;47.474;9.416;2024-02-28T06:32:32;43.28;;;27.17;;
11267;SDS011;72685;47.474;9.416;2024-02-28T06:34:57;39.35;;;26.55;;
11267;SDS011;72685;47.474;9.416;2024-02-28T06:37:22;43.13;;;27.42;;
11267;SDS011;72685;47.474;9.416;2024-02-28T06:39:48;41.97;;;27.53;;
11267;SDS011;72685;47.474;9.416;2024-02-28T06:42:13;44.10;;;28.47;;
11267;SDS011;72685;47.474;9.416;2024-02-28T06:44:39;43.53;;;26.90;;
11267;SDS011;72685;47.474;9.416;2024-02-28T06:47:04;41.70;;;27.00;;
11267;SDS011;72685;47.474;9.416;2024-02-28T06:49:29;44.13;;;28.10;;
11267;SDS011;72685;47.474;9.416;2024-02-28T06:51:55;43.70;;;27.70;;
11267;SDS011;72685;47.474;9.416;2024-02-28T06:54:23;41.88;;;28.10;;
11267;SDS011;72685;47.474;9.416;2024-02-28T06:56:48;42.93;;;27.40;;
11267;SDS011;72685;47.474;9.416;2024-02-28T06:59:14;41.93;;;28.30;;
11267;SDS011;72685;47.474;9.416;2024-02-28T07:01:39;43.13;;;28.10;;
11267;SDS011;72685;47.474;9.416;2024-02-28T07:04:05;45.70;;;29.00;;
11267;SDS011;72685;47.474;9.416;2024-02-28T07:06:30;43.60;;;29.33;;
11267;SDS011;72685;47.474;9.416;2024-02-28T07:08:55;44.23;;;28.70;;
11267;SDS011;72685;47.474;9.416;2024-02-28T07:11:21;45.13;;;28.57;;
11267;SDS011;72685;47.474;9.416;2024-02-28T07:13:46;42.97;;;27.80;;
11267;SDS011;72685;47.474;9.416;2024-02-28T07:16:12;42.83;;;27.70;;
11267;SDS011;72685;47.474;9.416;2024-02-28T07:18:37;42.80;;;27.93;;
11267;SDS011;72685;47.474;9.416;2024-02-28T07:21:02;41.93;;;28.23;;
11267;SDS011;72685;47.474;9.416;2024-02-28T07:23:28;44.80;;;28.77;;
11267;SDS011;72685;47.474;9.416;2024-02-28T07:25:53;46.95;;;29.20;;
11267;SDS011;72685;47.474;9.416;2024-02-28T07:28:19;44.20;;;28.10;;
11267;SDS011;72685;47.474;9.416;2024-02-28T07:30:44;49.07;;;29.20;;
11267;SDS011;72685;47.474;9.416;2024-02-28T07:33:10;46.47;;;29.35;;
11267;SDS011;72685;47.474;9.416;2024-02-28T07:35:45;49.05;;;28.48;;
11267;SDS011;72685;47.474;9.416;2024-02-28T07:38:11;42.58;;;27.40;;
11267;SDS011;72685;47.474;9.416;2024-02-28T07:40:36;42.57;;;27.97;;
11267;SDS011;72685;47.474;9.416;2024-02-28T07:43:02;44.53;;;29.00;;
11267;SDS011;72685;47.474;9.416;2024-02-28T07:45:27;42.13;;;27.50;;
11267;SDS011;72685;47.474;9.416;2024-02-28T07:47:53;44.00;;;28.67;;
11267;SDS011;72685;47.474;9.416;2024-02-28T07:50:18;43.53;;;28.30;;
11267;SDS011;72685;47.474;9.416;2024-02-28T07:52:43;45.45;;;27.90;;
11267;SDS011;72685;47.474;9.416;2024-02-28T07:55:09;45.73;;;27.07;;
11267;SDS011;72685;47.474;9.416;2024-02-28T07:57:34;40.80;;;27.20;;
11267;SDS011;72685;47.474;9.416;2024-02-28T07:59:59;43.43;;;28.13;;
11267;SDS011;72685;47.474;9.416;2024-02-28T08:02:25;45.05;;;29.05;;
11267;SDS011;72685;47.474;9.416;2024-02-28T08:04:50;44.70;;;27.30;;
11267;SDS011;72685;47.474;9.416;2024-02-28T08:07:16;43.60;;;27.83;;
11267;SDS011;72685;47.474;9.416;2024-02-28T08:09:41;46.73;;;28.07;;
11267;SDS011;72685;47.474;9.416;2024-02-28T08:12:07;42.37;;;27.40;;
11267;SDS011;72685;47.474;9.416;2024-02-28T08:14:32;43.33;;;27.55;;
11267;SDS011;72685;47.474;9.416;2024-02-28T08:16:57;44.87;;;27.07;;
11267;SDS011;72685;47.474;9.416;2024-02-28T08:19:23;45.83;;;27.50;;
11267;SDS011;72685;47.474;9.416;2024-02-28T08:21:48;40.27;;;26.70;;
11267;SDS011;72685;47.474;9.416;2024-02-28T08:24:14;38.95;;;26.33;;
11267;SDS011;72685;47.474;9.416;2024-02-28T08:26:40;41.07;;;26.40;;
11267;SDS011;72685;47.474;9.416;2024-02-28T08:29:06;44.30;;;27.67;;
11267;SDS011;72685;47.474;9.416;2024-02-28T08:31:31;40.67;;;25.73;;
11267;SDS011;72685;47.474;9.416;2024-02-28T08:33:56;42.67;;;26.87;;
11267;SDS011;72685;47.474;9.416;2024-02-28T08:36:22;43.70;;;26.48;;
11267;SDS011;72685;47.474;9.416;2024-02-28T08:38:47;40.77;;;26.30;;
11267;SDS011;72685;47.474;9.416;2024-02-28T08:41:13;43.63;;;26.50;;
11267;SDS011;72685;47.474;9.416;2024-02-28T08:43:39;40.40;;;26.17;;
11267;SDS011;72685;47.474;9.416;2024-02-28T08:46:04;42.33;;;26.58;;
11267;SDS011;72685;47.474;9.416;2024-02-28T08:48:30;41.75;;;26.58;;
11267;SDS011;72685;47.474;9.416;2024-02-28T08:50:57;43.17;;;27.20;;
11267;SDS011;72685;47.474;9.416;2024-02-28T08:53:22;42.50;;;26.77;;
11267;SDS011;72685;47.474;9.416;2024-02-28T08:55:47;45.13;;;27.93;;
11267;SDS011;72685;47.474;9.416;2024-02-28T08:58:13;42.80;;;28.60;;
11267;SDS011;72685;47.474;9.416;2024-02-28T09:00:38;44.22;;;28.17;;
11267;SDS011;72685;47.474;9.416;2024-02-28T09:03:04;44.33;;;27.23;;
11267;SDS011;72685;47.474;9.416;2024-02-28T09:05:29;45.47;;;27.70;;
11267;SDS011;72685;47.474;9.416;2024-02-28T09:07:55;45.28;;;28.52;;
11267;SDS011;72685;47.474;9.416;2024-02-28T09:10:22;45.13;;;28.30;;
11267;SDS011;72685;47.474;9.416;2024-02-28T09:12:49;44.53;;;28.70;;
11267;SDS011;72685;47.474;9.416;2024-02-28T09:15:15;44.10;;;28.63;;
11267;SDS011;72685;47.474;9.416;2024-02-28T09:17:40;45.38;;;28.15;;
11267;SDS011;72685;47.474;9.416;2024-02-28T09:20:06;45.07;;;28.70;;
11267;SDS011;72685;47.474;9.416;2024-02-28T09:22:33;45.65;;;28.85;;
11267;SDS011;72685;47.474;9.416;2024-02-28T09:24:58;44.77;;;28.50;;
11267;SDS011;72685;47.474;9.416;2024-02-28T09:27:23;47.20;;;28.90;;
11267;SDS011;72685;47.474;9.416;2024-02-28T09:29:50;47.08;;;29.60;;
11267;SDS011;72685;47.474;9.416;2024-02-28T09:32:15;46.83;;;28.42;;
11267;SDS011;72685;47.474;9.416;2024-02-28T09:34:40;47.53;;;29.33;;
11267;SDS011;72685;47.474;9.416;2024-02-28T09:37:06;49.17;;;30.63;;
11267;SDS011;72685;47.474;9.416;2024-02-28T09:39:31;47.07;;;29.23;;
11267;SDS011;72685;47.474;9.416;2024-02-28T09:41:57;46.47;;;29.08;;
11267;SDS011;72685;47.474;9.416;2024-02-28T09:44:23;46.53;;;27.95;;
11267;SDS011;72685;47.474;9.416;2024-02-28T09:46:49;42.27;;;28.13;;
11267;SDS011;72685;47.474;9.416;2024-02-28T09:49:16;47.60;;;28.67;;
11267;SDS011;72685;47.474;9.416;2024-02-28T09:51:43;44.60;;;28.43;;
11267;SDS011;72685;47.474;9.416;2024-02-28T09:54:09;46.47;;;29.23;;
11267;SDS011;72685;47.474;9.416;2024-02-28T09:56:34;46.07;;;28.90;;
11267;SDS011;72685;47.474;9.416;2024-02-28T09:59:00;45.15;;;27.73;;
11267;SDS011;72685;47.474;9.416;2024-02-28T10:01:28;45.63;;;29.20;;
11267;SDS011;72685;47.474;9.416;2024-02-28T10:03:54;46.67;;;28.60;;
11267;SDS011;72685;47.474;9.416;2024-02-28T10:06:21;49.90;;;29.97;;
11267;SDS011;72685;47.474;9.416;2024-02-28T10:08:47;47.00;;;29.77;;
11267;SDS011;72685;47.474;9.416;2024-02-28T10:11:22;48.70;;;29.63;;
11267;SDS011;72685;47.474;9.416;2024-02-28T10:13:49;44.75;;;29.45;;
11267;SDS011;72685;47.474;9.416;2024-02-28T10:16:15;45.67;;;29.10;;
11267;SDS011;72685;47.474;9.416;2024-02-28T10:18:44;47.25;;;29.92;;
11267;SDS011;72685;47.474;9.416;2024-02-28T10:21:10;46.17;;;29.13;;
11267;SDS011;72685;47.474;9.416;2024-02-28T10:23:45;46.72;;;29.35;;
11267;SDS011;72685;47.474;9.416;2024-02-28T10:26:11;47.13;;;29.40;;
11267;SDS011;72685;47.474;9.416;2024-02-28T10:28:37;45.45;;;28.65;;
11267;SDS011;72685;47.474;9.416;2024-02-28T10:31:05;47.07;;;29.33;;
11267;SDS011;72685;47.474;9.416;2024-02-28T10:33:31;48.40;;;29.75;;
11267;SDS011;72685;47.474;9.416;2024-02-28T10:35:58;44.72;;;29.77;;
11267;SDS011;72685;47.474;9.416;2024-02-28T10:38:24;48.50;;;30.40;;
11267;SDS011;72685;47.474;9.416;2024-02-28T10:40:52;50.47;;;30.38;;
11267;SDS011;72685;47.474;9.416;2024-02-28T10:43:18;46.80;;;29.55;;
11267;SDS011;72685;47.474;9.416;2024-02-28T10:45:44;50.67;;;30.13;;
11267;SDS011;72685;47.474;9.416;2024-02-28T10:48:11;48.72;;;29.98;;
11267;SDS011;72685;47.474;9.416;2024-02-28T10:50:39;50.08;;;29.83;;
11267;SDS011;72685;47.474;9.416;2024-02-28T10:53:04;50.70;;;30.47;;
11267;SDS011;72685;47.474;9.416;2024-02-28T10:55:39;49.88;;;29.65;;
11267;SDS011;72685;47.474;9.416;2024-02-28T10:58:06;52.58;;;30.25;;
11267;SDS011;72685;47.474;9.416;2024-02-28T11:00:33;54.25;;;32.35;;
11267;SDS011;72685;47.474;9.416;2024-02-28T11:03:00;50.75;;;30.02;;
11267;SDS011;72685;47.474;9.416;2024-02-28T11:05:43;49.38;;;30.13;;
11267;SDS011;72685;47.474;9.416;2024-02-28T11:08:20;49.35;;;30.70;;
11267;SDS011;72685;47.474;9.416;2024-02-28T11:10:47;52.45;;;32.05;;
11267;SDS011;72685;47.474;9.416;2024-02-28T11:13:22;49.22;;;30.45;;
11267;SDS011;72685;47.474;9.416;2024-02-28T11:15:48;54.88;;;31.42;;
11267;SDS011;72685;47.474;9.416;2024-02-28T11:18:13;53.63;;;31.70;;
11267;SDS011;72685;47.474;9.416;2024-02-28T11:20:39;51.97;;;31.67;;
11267;SDS011;72685;47.474;9.416;2024-02-28T11:23:07;53.10;;;31.02;;
11267;SDS011;72685;47.474;9.416;2024-02-28T11:25:34;54.58;;;31.48;;
11267;SDS011;72685;47.474;9.416;2024-02-28T11:27:59;51.60;;;31.30;;
11267;SDS011;72685;47.474;9.416;2024-02-28T11:30:25;51.08;;;30.88;;
11267;SDS011;72685;47.474;9.416;2024-02-28T11:32:54;55.97;;;32.35;;
11267;SDS011;72685;47.474;9.416;2024-02-28T11:35:20;51.72;;;30.55;;
11267;SDS011;72685;47.474;9.416;2024-02-28T11:37:46;54.78;;;33.22;;
11267;SDS011;72685;47.474;9.416;2024-02-28T11:40:12;58.27;;;31.67;;
11267;SDS011;72685;47.474;9.416;2024-02-28T11:42:39;53.13;;;31.40;;
11267;SDS011;72685;47.474;9.416;2024-02-28T11:45:04;52.40;;;32.03;;
11267;SDS011;72685;47.474;9.416;2024-02-28T11:47:33;52.57;;;31.13;;
11267;SDS011;72685;47.474;9.416;2024-02-28T11:50:02;58.33;;;32.38;;
11267;SDS011;72685;47.474;9.416;2024-02-28T11:52:31;52.67;;;31.23;;
11267;SDS011;72685;47.474;9.416;2024-02-28T11:54:57;51.20;;;30.20;;
11267;SDS011;72685;47.474;9.416;2024-02-28T11:57:22;52.00;;;31.53;;
11267;SDS011;72685;47.474;9.416;2024-02-28T11:59:48;49.63;;;29.23;;
11267;SDS011;72685;47.474;9.416;2024-02-28T12:02:14;50.83;;;29.90;;
11267;SDS011;72685;47.474;9.416;2024-02-28T12:04:44;54.75;;;31.52;;
11267;SDS011;72685;47.474;9.416;2024-02-28T12:07:10;51.63;;;30.45;;
11267;SDS011;72685;47.474;9.416;2024-02-28T12:09:36;53.85;;;31.83;;
11267;SDS011;72685;47.474;9.416;2024-02-28T12:12:02;54.60;;;30.50;;
11267;SDS011;72685;47.474;9.416;2024-02-28T12:14:31;53.67;;;31.98;;
11267;SDS011;72685;47.474;9.416;2024-02-28T12:16:57;54.88;;;32.67;;
11267;SDS011;72685;47.474;9.416;2024-02-28T12:19:23;53.17;;;31.40;;
11267;SDS011;72685;47.474;9.416;2024-02-28T12:21:49;52.30;;;31.25;;
11267;SDS011;72685;47.474;9.416;2024-02-28T12:24:14;46.03;;;28.67;;
11267;SDS011;72685;47.474;9.416;2024-02-28T12:26:40;47.35;;;29.58;;
11267;SDS011;72685;47.474;9.416;2024-02-28T12:29:06;47.20;;;29.20;;
11267;SDS011;72685;47.474;9.416;2024-02-28T12:31:31;51.67;;;29.60;;
11267;SDS011;72685;47.474;9.416;2024-02-28T12:33:57;49.60;;;30.27;;
11267;SDS011;72685;47.474;9.416;2024-02-28T12:36:22;49.92;;;30.10;;
11267;SDS011;72685;47.474;9.416;2024-02-28T12:38:48;47.33;;;30.05;;
11267;SDS011;72685;47.474;9.416;2024-02-28T12:41:13;50.97;;;31.70;;
11267;SDS011;72685;47.474;9.416;2024-02-28T12:43:40;51.72;;;29.83;;
11267;SDS011;72685;47.474;9.416;2024-02-28T12:46:06;50.53;;;30.73;;
11267;SDS011;72685;47.474;9.416;2024-02-28T12:48:36;50.97;;;31.03;;
11267;SDS011;72685;47.474;9.416;2024-02-28T12:51:02;52.22;;;30.65;;
11267;SDS011;72685;47.474;9.416;2024-02-28T12:53:30;49.25;;;29.98;;
11267;SDS011;72685;47.474;9.416;2024-02-28T12:55:55;50.03;;;30.15;;
11267;SDS011;72685;47.474;9.416;2024-02-28T12:58:21;52.93;;;31.20;;
11267;SDS011;72685;47.474;9.416;2024-02-28T13:00:48;53.47;;;30.17;;
11267;SDS011;72685;47.474;9.416;2024-02-28T13:03:14;50.43;;;31.13;;
11267;SDS011;72685;47.474;9.416;2024-02-28T13:05:40;53.60;;;31.17;;
11267;SDS011;72685;47.474;9.416;2024-02-28T13:08:05;46.43;;;29.27;;
11267;SDS011;72685;47.474;9.416;2024-02-28T13:10:31;50.37;;;29.00;;
11267;SDS011;72685;47.474;9.416;2024-02-28T13:12:59;48.30;;;29.50;;
11267;SDS011;72685;47.474;9.416;2024-02-28T13:15:25;47.85;;;29.98;;
11267;SDS011;72685;47.474;9.416;2024-02-28T13:17:50;48.60;;;29.60;;
11267;SDS011;72685;47.474;9.416;2024-02-28T13:20:17;49.10;;;29.95;;
11267;SDS011;72685;47.474;9.416;2024-02-28T13:22:42;47.42;;;29.48;;
11267;SDS011;72685;47.474;9.416;2024-02-28T13:25:08;45.50;;;29.10;;
11267;SDS011;72685;47.474;9.416;2024-02-28T13:27:34;48.42;;;29.90;;
11267;SDS011;72685;47.474;9.416;2024-02-28T13:29:59;49.47;;;29.10;;
11267;SDS011;72685;47.474;9.416;2024-02-28T13:32:24;49.60;;;28.33;;
11267;SDS011;72685;47.474;9.416;2024-02-28T13:34:50;44.57;;;27.73;;
11267;SDS011;72685;47.474;9.416;2024-02-28T13:37:15;47.50;;;28.65;;
11267;SDS011;72685;47.474;9.416;2024-02-28T13:39:41;48.37;;;29.00;;
11267;SDS011;72685;47.474;9.416;2024-02-28T13:42:06;47.03;;;28.63;;
11267;SDS011;72685;47.474;9.416;2024-02-28T13:44:34;47.60;;;28.83;;
11267;SDS011;72685;47.474;9.416;2024-02-28T13:47:01;43.38;;;27.48;;
11267;SDS011;72685;47.474;9.416;2024-02-28T13:49:26;45.40;;;27.48;;
11267;SDS011;72685;47.474;9.416;2024-02-28T13:51:52;46.43;;;28.30;;
11267;SDS011;72685;47.474;9.416;2024-02-28T13:54:17;46.07;;;28.93;;
11267;SDS011;72685;47.474;9.416;2024-02-28T13:56:43;49.57;;;28.93;;
11267;SDS011;72685;47.474;9.416;2024-02-28T13:59:08;47.13;;;29.47;;
11267;SDS011;72685;47.474;9.416;2024-02-28T14:01:33;47.30;;;28.47;;
11267;SDS011;72685;47.474;9.416;2024-02-28T14:03:59;47.37;;;27.93;;
11267;SDS011;72685;47.474;9.416;2024-02-28T14:06:24;46.70;;;27.77;;
11267;SDS011;72685;47.474;9.416;2024-02-28T14:08:50;42.63;;;26.60;;
11267;SDS011;72685;47.474;9.416;2024-02-28T14:11:17;43.40;;;27.48;;
11267;SDS011;72685;47.474;9.416;2024-02-28T14:13:42;47.33;;;28.13;;